Terminal Aerodrome Forecast
Issued by NWS

Home | Current Version | Previous Version | Text Only | Print | Product List | Glossary On
Versions: 1 2 3 4 5 6 7 8 9 10 11 12 13 14 15 16 17 18 19 20 21 22 23 24 25 26 27 28 29 30 31 32 33 34 35 36 37 38 39 40 41
000
FTUS45 KPSR 011700 CCA
TAFPHX
TAF COR
KPHX 011752Z 0118/0218 11003KT 2SM BR BKN002
      TEMPO 0118/0119 5SM BR FEW005
     FM011900 11003KT P6SM FEW010
     FM012000 25004KT P6SM FEW060
     FM020400 10003KT P6SM SKC
     FM021200 10004KT 5SM BR SKC
     FM021600 10005KT P6SM SKC=

USA.gov is the U.S. government's official web portal to all federal, state and local government web resources and services.